Time;durP1;ratioP1;P1;durP2;ratioP2;P2;SDS_P1;SDS_P2;PMS_P1;PMS_P2;Temp;Humidity;BMP_temperature;BMP_pressure;BME280_temperature;BME280_humidity;BME280_pressure;Samples;Min_cycle;Max_cycle;Signal;HPM_P1;HPM_P2
2021/10/22 00:00:49;;;;;;;49.85;46.33;;;;;;;;;;5092295;28;20205;-84
2021/10/22 00:03:16;;;;;;;49.55;45.35;;;;;;;;;;5095074;28;20192;-84
2021/10/22 00:05:44;;;;;;;47.88;44.65;;;;;;;;;;5094655;28;20206;-84
2021/10/22 00:08:11;;;;;;;45.70;42.58;;;;;;;;;;5094763;28;20545;-84
2021/10/22 00:10:38;;;;;;;44.72;41.38;;;;;;;;;;5094395;28;20225;-84
2021/10/22 00:13:06;;;;;;;43.28;40.42;;;;;;;;;;5094729;28;20192;-84
2021/10/22 00:15:34;;;;;;;42.85;40.10;;;;;;;;;;5094701;28;20196;-85
2021/10/22 00:18:02;;;;;;;42.35;39.50;;;;;;;;;;5094206;28;20673;-84
2021/10/22 00:20:29;;;;;;;39.00;36.55;;;;;;;;;;5094256;28;20266;-83
2021/10/22 00:22:57;;;;;;;38.70;36.20;;;;;;;;;;5094418;28;20200;-84
2021/10/22 00:25:24;;;;;;;35.67;33.08;;;;;;;;;;5094354;28;20224;-84
2021/10/22 00:27:52;;;;;;;32.38;30.00;;;;;;;;;;5094164;28;20195;-83
2021/10/22 00:30:19;;;;;;;34.30;31.75;;;;;;;;;;5093926;28;20294;-84
2021/10/22 00:32:48;;;;;;;31.48;29.38;;;;;;;;;;5094104;28;20545;-85
2021/10/22 00:35:16;;;;;;;32.35;30.15;;;;;;;;;;5093890;28;20195;-83
2021/10/22 00:37:43;;;;;;;32.25;29.90;;;;;;;;;;5094115;28;20192;-84
2021/10/22 00:40:11;;;;;;;30.15;27.73;;;;;;;;;;5094328;28;20191;-84
2021/10/22 00:42:39;;;;;;;32.08;29.27;;;;;;;;;;5092391;28;20286;-84
2021/10/22 00:45:08;;;;;;;32.80;30.10;;;;;;;;;;5093003;28;20207;-84
2021/10/22 00:47:35;;;;;;;29.92;27.63;;;;;;;;;;5093991;28;20274;-82
2021/10/22 00:50:04;;;;;;;31.77;28.42;;;;;;;;;;5093893;28;20237;-84
2021/10/22 00:52:32;;;;;;;27.65;25.55;;;;;;;;;;5094003;28;20210;-84
2021/10/22 00:54:59;;;;;;;29.00;26.50;;;;;;;;;;5093895;28;20195;-84
2021/10/22 00:57:26;;;;;;;30.80;28.00;;;;;;;;;;5093547;28;20241;-84
2021/10/22 00:59:54;;;;;;;29.98;27.10;;;;;;;;;;5092501;28;20292;-84
2021/10/22 01:02:22;;;;;;;27.45;25.33;;;;;;;;;;5093649;28;20207;-84
2021/10/22 01:04:49;;;;;;;26.08;24.13;;;;;;;;;;5093769;28;20223;-84
2021/10/22 01:07:18;;;;;;;27.45;25.02;;;;;;;;;;5093354;28;20191;-84
2021/10/22 01:09:46;;;;;;;26.30;23.45;;;;;;;;;;5093484;28;20212;-84
2021/10/22 01:12:14;;;;;;;29.08;26.13;;;;;;;;;;5096458;28;20196;-84
2021/10/22 01:14:41;;;;;;;27.10;24.45;;;;;;;;;;5100646;28;20192;-83
2021/10/22 01:17:09;;;;;;;26.23;24.00;;;;;;;;;;5100513;28;20191;-84
2021/10/22 01:19:36;;;;;;;27.63;25.38;;;;;;;;;;5100127;28;20187;-84
2021/10/22 01:22:05;;;;;;;27.02;24.13;;;;;;;;;;5100421;28;20235;-84
2021/10/22 01:24:32;;;;;;;31.48;26.45;;;;;;;;;;5099819;28;20220;-84
2021/10/22 01:27:00;;;;;;;29.60;26.83;;;;;;;;;;5099870;28;20539;-84
2021/10/22 01:29:28;;;;;;;28.95;26.30;;;;;;;;;;5100091;28;20216;-84
2021/10/22 01:31:55;;;;;;;28.77;26.10;;;;;;;;;;5099645;28;20196;-84
2021/10/22 01:34:23;;;;;;;25.92;23.83;;;;;;;;;;5100008;28;20196;-83
2021/10/22 01:36:50;;;;;;;35.97;27.00;;;;;;;;;;5100022;28;20196;-84
2021/10/22 01:39:19;;;;;;;28.38;25.73;;;;;;;;;;5100049;28;20196;-84
2021/10/22 01:41:47;;;;;;;25.75;23.23;;;;;;;;;;5100003;28;20195;-84
2021/10/22 01:44:16;;;;;;;26.13;23.98;;;;;;;;;;5100002;28;20190;-84
2021/10/22 01:46:43;;;;;;;23.75;21.67;;;;;;;;;;5100193;28;20217;-84
2021/10/22 01:49:11;;;;;;;24.60;22.35;;;;;;;;;;5100098;28;20192;-85
2021/10/22 01:51:38;;;;;;;24.30;22.50;;;;;;;;;;5100098;28;20193;-84
2021/10/22 01:54:05;;;;;;;23.45;21.25;;;;;;;;;;5099925;28;20659;-84
2021/10/22 01:56:34;;;;;;;24.83;22.45;;;;;;;;;;5099722;28;20201;-84
2021/10/22 01:59:01;;;;;;;24.27;22.02;;;;;;;;;;5099651;28;20231;-84
2021/10/22 02:01:30;;;;;;;23.65;21.63;;;;;;;;;;5099980;28;20201;-84
2021/10/22 02:03:57;;;;;;;24.65;22.52;;;;;;;;;;5099951;28;20271;-84
2021/10/22 02:06:24;;;;;;;22.35;20.63;;;;;;;;;;5099785;28;20212;-84
2021/10/22 02:08:52;;;;;;;23.92;21.48;;;;;;;;;;5099954;28;20203;-84
2021/10/22 02:11:19;;;;;;;28.42;25.52;;;;;;;;;;5099843;28;20235;-84
2021/10/22 02:13:48;;;;;;;27.00;24.45;;;;;;;;;;5100003;28;20185;-83
2021/10/22 02:16:16;;;;;;;24.50;21.95;;;;;;;;;;5099441;28;20640;-82
2021/10/22 02:18:43;;;;;;;25.27;22.65;;;;;;;;;;5099436;28;20636;-84
2021/10/22 02:21:11;;;;;;;23.80;21.80;;;;;;;;;;5099779;28;20193;-84
2021/10/22 02:23:38;;;;;;;24.25;21.38;;;;;;;;;;5097384;28;20187;-84
2021/10/22 02:26:05;;;;;;;22.50;20.60;;;;;;;;;;5094904;28;20781;-84
2021/10/22 02:28:33;;;;;;;23.77;21.77;;;;;;;;;;5096329;28;20193;-84
2021/10/22 02:31:01;;;;;;;23.88;22.08;;;;;;;;;;5096341;28;20571;-84
2021/10/22 02:33:29;;;;;;;23.23;21.42;;;;;;;;;;5096528;28;20220;-84
2021/10/22 02:35:56;;;;;;;24.42;22.15;;;;;;;;;;5096545;28;20192;-83
2021/10/22 02:38:24;;;;;;;23.55;21.55;;;;;;;;;;5096138;28;20199;-84
2021/10/22 02:40:51;;;;;;;24.50;22.10;;;;;;;;;;5096233;28;20192;-83
2021/10/22 02:43:18;;;;;;;23.65;21.42;;;;;;;;;;5096271;28;20186;-84
2021/10/22 02:45:45;;;;;;;21.52;19.60;;;;;;;;;;5095974;28;20194;-83
2021/10/22 02:48:14;;;;;;;23.90;21.65;;;;;;;;;;5096209;28;20307;-84
2021/10/22 02:50:42;;;;;;;21.98;20.33;;;;;;;;;;5096047;28;20219;-84
2021/10/22 02:53:09;;;;;;;22.00;20.35;;;;;;;;;;5095794;28;20210;-84
2021/10/22 02:55:36;;;;;;;22.40;20.70;;;;;;;;;;5096079;28;20555;-84
2021/10/22 02:58:07;;;;;;;22.92;20.75;;;;;;;;;;5095764;28;20234;-84
2021/10/22 03:00:34;;;;;;;21.38;19.55;;;;;;;;;;5096009;28;20545;-84
2021/10/22 03:03:01;;;;;;;21.58;20.00;;;;;;;;;;5095671;28;20196;-84
2021/10/22 03:05:31;;;;;;;22.92;20.83;;;;;;;;;;5095604;28;20196;-82
2021/10/22 03:07:59;;;;;;;20.60;19.10;;;;;;;;;;5095614;28;20192;-84
2021/10/22 03:10:26;;;;;;;22.58;20.25;;;;;;;;;;5095618;28;20312;-83
2021/10/22 03:12:54;;;;;;;22.67;20.95;;;;;;;;;;5095587;28;20653;-83
2021/10/22 03:15:21;;;;;;;22.05;20.35;;;;;;;;;;5095569;28;20199;-84
2021/10/22 03:17:49;;;;;;;22.45;20.55;;;;;;;;;;5095727;28;20184;-84
2021/10/22 03:20:17;;;;;;;21.60;19.75;;;;;;;;;;5094158;28;20206;-84
2021/10/22 03:22:45;;;;;;;23.13;21.23;;;;;;;;;;5095501;28;20184;-84
2021/10/22 03:25:13;;;;;;;30.25;21.85;;;;;;;;;;5095535;28;20223;-84
2021/10/22 03:27:41;;;;;;;21.90;19.95;;;;;;;;;;5095280;28;20191;-83
2021/10/22 03:30:09;;;;;;;20.85;19.70;;;;;;;;;;5095059;28;20216;-84
2021/10/22 03:32:37;;;;;;;21.05;19.50;;;;;;;;;;5095042;28;20203;-84
2021/10/22 03:35:08;;;;;;;22.73;19.15;;;;;;;;;;5094898;28;20200;-84
2021/10/22 03:37:35;;;;;;;20.05;18.55;;;;;;;;;;5094880;28;20196;-84
2021/10/22 03:40:04;;;;;;;19.30;18.27;;;;;;;;;;5095160;28;20193;-84
2021/10/22 03:42:31;;;;;;;20.45;18.95;;;;;;;;;;5095190;28;20200;-84
2021/10/22 03:44:59;;;;;;;22.58;20.30;;;;;;;;;;5094983;28;20192;-84
2021/10/22 03:47:27;;;;;;;19.45;18.05;;;;;;;;;;5094792;28;20251;-85
2021/10/22 03:49:54;;;;;;;19.73;18.00;;;;;;;;;;5095051;28;20188;-84
2021/10/22 03:52:22;;;;;;;22.58;19.60;;;;;;;;;;5094799;28;20214;-84
2021/10/22 03:54:50;;;;;;;20.25;18.83;;;;;;;;;;5094886;28;20608;-83
2021/10/22 03:57:18;;;;;;;20.95;19.42;;;;;;;;;;5094231;28;20597;-84
2021/10/22 03:59:46;;;;;;;20.40;19.00;;;;;;;;;;5094495;28;20194;-84
2021/10/22 04:02:14;;;;;;;19.52;17.85;;;;;;;;;;5094155;28;20665;-85
2021/10/22 04:04:41;;;;;;;20.65;18.92;;;;;;;;;;5094230;28;20565;-84
2021/10/22 04:07:10;;;;;;;21.58;20.23;;;;;;;;;;5094071;28;20640;-85
2021/10/22 04:09:37;;;;;;;19.13;17.95;;;;;;;;;;5094409;28;20215;-84
2021/10/22 04:12:05;;;;;;;21.55;19.75;;;;;;;;;;5094419;28;20216;-85
2021/10/22 04:14:33;;;;;;;22.83;20.77;;;;;;;;;;5094392;28;20193;-84
2021/10/22 04:17:01;;;;;;;21.05;19.33;;;;;;;;;;5094244;28;20192;-84
2021/10/22 04:19:28;;;;;;;19.55;17.67;;;;;;;;;;5094661;28;20189;-84
2021/10/22 04:21:56;;;;;;;21.05;19.05;;;;;;;;;;5094602;28;20200;-84
2021/10/22 04:24:24;;;;;;;20.25;18.55;;;;;;;;;;5094334;28;20717;-83
2021/10/22 04:26:51;;;;;;;20.65;18.80;;;;;;;;;;5093963;28;20196;-84
2021/10/22 04:29:19;;;;;;;20.30;19.10;;;;;;;;;;5094382;28;20661;-84
2021/10/22 04:31:48;;;;;;;21.20;19.17;;;;;;;;;;5094270;28;20563;-84
2021/10/22 04:34:15;;;;;;;21.48;19.27;;;;;;;;;;5094336;28;20785;-84
2021/10/22 04:36:43;;;;;;;19.65;18.13;;;;;;;;;;5094006;28;20207;-84
2021/10/22 04:41:55;;;;;;;19.67;18.52;;;;;;;;;;5094122;28;20227;-83
2021/10/22 04:44:25;;;;;;;19.17;17.80;;;;;;;;;;5094045;28;20192;-84
2021/10/22 04:46:54;;;;;;;21.65;19.40;;;;;;;;;;5093459;28;20188;-84
2021/10/22 04:49:21;;;;;;;20.15;18.75;;;;;;;;;;5093969;28;20196;-83
2021/10/22 04:51:49;;;;;;;20.63;19.08;;;;;;;;;;5093691;28;20213;-84
2021/10/22 04:54:16;;;;;;;22.50;19.83;;;;;;;;;;5093738;28;20713;-84
2021/10/22 04:56:44;;;;;;;21.42;19.88;;;;;;;;;;5093155;28;20196;-84
2021/10/22 04:59:11;;;;;;;19.75;18.45;;;;;;;;;;5092318;28;20658;-84
2021/10/22 05:01:38;;;;;;;19.98;18.50;;;;;;;;;;5093520;28;20188;-83
2021/10/22 05:04:07;;;;;;;20.13;18.63;;;;;;;;;;5093751;28;20197;-83
2021/10/22 05:06:35;;;;;;;19.38;18.38;;;;;;;;;;5093668;28;20631;-83
2021/10/22 05:09:02;;;;;;;19.90;18.50;;;;;;;;;;5093629;28;20184;-83
2021/10/22 05:11:29;;;;;;;21.65;18.75;;;;;;;;;;5093165;28;20228;-84
2021/10/22 05:13:57;;;;;;;21.38;19.50;;;;;;;;;;5093370;28;20185;-84
2021/10/22 05:16:24;;;;;;;20.70;19.15;;;;;;;;;;5093292;28;20637;-83
2021/10/22 05:18:52;;;;;;;19.70;18.13;;;;;;;;;;5093753;28;20200;-83
2021/10/22 05:21:21;;;;;;;20.33;18.77;;;;;;;;;;5093315;28;20627;-82
2021/10/22 05:23:48;;;;;;;21.38;19.27;;;;;;;;;;5093031;28;20192;-83
2021/10/22 05:26:16;;;;;;;21.25;19.35;;;;;;;;;;5092958;28;20597;-83
2021/10/22 05:28:43;;;;;;;18.75;17.75;;;;;;;;;;5093080;28;20191;-83
2021/10/22 05:31:10;;;;;;;20.40;18.63;;;;;;;;;;5093317;28;20228;-83
2021/10/22 05:33:38;;;;;;;21.05;19.42;;;;;;;;;;5093004;28;20205;-83
2021/10/22 05:36:05;;;;;;;20.35;18.35;;;;;;;;;;5093010;28;20185;-84
2021/10/22 05:38:34;;;;;;;20.10;18.80;;;;;;;;;;5093085;28;20191;-83
2021/10/22 05:41:01;;;;;;;20.58;18.92;;;;;;;;;;5093161;28;20205;-83
2021/10/22 05:43:28;;;;;;;21.33;19.83;;;;;;;;;;5092856;28;20531;-83
2021/10/22 05:45:56;;;;;;;20.30;18.52;;;;;;;;;;5092974;28;20373;-83
2021/10/22 05:48:23;;;;;;;20.42;18.88;;;;;;;;;;5092621;28;20647;-83
2021/10/22 05:50:51;;;;;;;20.42;18.85;;;;;;;;;;5092922;28;20228;-83
2021/10/22 05:53:18;;;;;;;20.25;18.73;;;;;;;;;;5093097;28;20636;-84
2021/10/22 05:55:47;;;;;;;21.77;19.92;;;;;;;;;;5093062;28;20192;-83
2021/10/22 05:58:14;;;;;;;21.00;19.33;;;;;;;;;;5092879;28;20237;-86
2021/10/22 06:00:43;;;;;;;21.00;19.40;;;;;;;;;;5097042;28;20193;-83
2021/10/22 06:03:10;;;;;;;21.70;19.75;;;;;;;;;;5097072;28;20188;-84
2021/10/22 06:05:39;;;;;;;21.17;19.58;;;;;;;;;;5096795;28;20184;-84
2021/10/22 06:08:07;;;;;;;19.92;18.60;;;;;;;;;;5097290;28;20246;-84
2021/10/22 06:10:34;;;;;;;25.77;20.10;;;;;;;;;;5096859;28;20193;-85
2021/10/22 06:13:03;;;;;;;20.83;19.30;;;;;;;;;;5096422;28;20213;-83
2021/10/22 06:15:30;;;;;;;22.55;20.42;;;;;;;;;;5096585;28;20192;-82
2021/10/22 06:17:58;;;;;;;23.95;21.65;;;;;;;;;;5096528;28;20185;-83
2021/10/22 06:20:29;;;;;;;31.92;20.15;;;;;;;;;;5096288;28;20193;-83
2021/10/22 06:25:42;;;;;;;21.25;19.48;;;;;;;;;;5095837;28;20705;-82
2021/10/22 06:28:11;;;;;;;24.25;20.15;;;;;;;;;;5095861;27;20566;-84
2021/10/22 06:30:39;;;;;;;21.30;19.67;;;;;;;;;;5096000;28;20200;-83
2021/10/22 06:33:07;;;;;;;21.80;20.50;;;;;;;;;;5095734;28;20204;-83
2021/10/22 06:35:36;;;;;;;22.27;20.27;;;;;;;;;;5096010;28;20608;-83
2021/10/22 06:38:03;;;;;;;21.55;19.85;;;;;;;;;;5095621;28;20204;-83
2021/10/22 06:40:31;;;;;;;22.27;20.38;;;;;;;;;;5095751;28;20197;-82
2021/10/22 06:42:58;;;;;;;21.23;19.35;;;;;;;;;;5094620;28;20196;-83
2021/10/22 06:45:27;;;;;;;22.75;20.95;;;;;;;;;;5096200;28;20201;-83
2021/10/22 06:47:55;;;;;;;22.67;20.60;;;;;;;;;;5095697;28;20194;-83
2021/10/22 06:50:22;;;;;;;20.90;19.25;;;;;;;;;;5095341;28;20651;-83
2021/10/22 06:52:50;;;;;;;21.00;19.02;;;;;;;;;;5095640;28;20221;-83
2021/10/22 06:55:18;;;;;;;20.80;19.13;;;;;;;;;;5095390;28;20642;-82
2021/10/22 06:57:45;;;;;;;20.85;19.38;;;;;;;;;;5095186;28;20263;-82
2021/10/22 07:00:14;;;;;;;19.50;18.38;;;;;;;;;;5095561;28;20657;-82
2021/10/22 07:02:49;;;;;;;22.00;20.52;;;;;;;;;;5095385;28;20193;-83
2021/10/22 07:05:33;;;;;;;22.17;20.40;;;;;;;;;;5095422;28;20391;-83
2021/10/22 07:08:00;;;;;;;20.45;18.98;;;;;;;;;;5095308;28;20204;-85
2021/10/22 07:10:29;;;;;;;21.15;19.27;;;;;;;;;;5095113;28;20620;-84
2021/10/22 07:12:56;;;;;;;21.58;19.67;;;;;;;;;;5095312;28;20569;-83
2021/10/22 07:15:25;;;;;;;25.02;22.92;;;;;;;;;;5095277;28;20189;-83
2021/10/22 07:17:56;;;;;;;22.65;20.75;;;;;;;;;;5095378;28;20201;-88
2021/10/22 07:20:24;;;;;;;22.10;20.50;;;;;;;;;;5094095;28;20206;-83
2021/10/22 07:22:52;;;;;;;23.98;21.65;;;;;;;;;;5095136;28;20198;-80
2021/10/22 07:25:20;;;;;;;20.60;19.13;;;;;;;;;;5095356;28;20315;-85
2021/10/22 07:27:48;;;;;;;24.08;22.08;;;;;;;;;;5095117;28;20265;-82
2021/10/22 07:30:15;;;;;;;21.70;20.33;;;;;;;;;;5094705;28;20750;-81
2021/10/22 07:32:43;;;;;;;22.95;21.65;;;;;;;;;;5094356;28;20208;-81
2021/10/22 07:35:12;;;;;;;21.40;20.00;;;;;;;;;;5094305;28;20269;-81
2021/10/22 07:37:39;;;;;;;23.13;21.02;;;;;;;;;;5094558;28;20193;-80
2021/10/22 07:40:08;;;;;;;20.80;19.42;;;;;;;;;;5094646;28;20197;-82
2021/10/22 07:42:36;;;;;;;22.42;21.00;;;;;;;;;;5094503;28;20571;-82
2021/10/22 07:45:05;;;;;;;22.80;20.45;;;;;;;;;;5094573;28;20206;-82
2021/10/22 07:47:33;;;;;;;21.00;19.38;;;;;;;;;;5095116;28;20188;-81
2021/10/22 07:50:00;;;;;;;22.23;20.50;;;;;;;;;;5094421;28;20191;-81
2021/10/22 07:52:30;;;;;;;21.23;19.85;;;;;;;;;;5094325;28;20220;-82
2021/10/22 07:54:59;;;;;;;21.90;20.08;;;;;;;;;;5093002;28;20235;-81
2021/10/22 07:57:27;;;;;;;20.75;19.02;;;;;;;;;;5094076;28;20587;-83
2021/10/22 07:59:54;;;;;;;20.70;19.45;;;;;;;;;;5094101;28;20190;-81
2021/10/22 08:02:22;;;;;;;21.10;19.00;;;;;;;;;;5092914;28;20192;-82
2021/10/22 08:04:50;;;;;;;20.98;19.38;;;;;;;;;;5092588;28;20285;-82
2021/10/22 08:07:19;;;;;;;21.50;19.85;;;;;;;;;;5094044;27;20213;-82
2021/10/22 08:09:48;;;;;;;21.20;19.67;;;;;;;;;;5093925;28;20270;-82
2021/10/22 08:12:17;;;;;;;23.48;21.25;;;;;;;;;;5094302;28;20216;-82
2021/10/22 08:14:46;;;;;;;22.55;20.83;;;;;;;;;;5093915;28;20191;-82
2021/10/22 08:17:13;;;;;;;20.70;19.50;;;;;;;;;;5093584;28;20730;-81
2021/10/22 08:19:41;;;;;;;19.63;18.17;;;;;;;;;;5093696;28;20537;-81
2021/10/22 08:22:27;;;;;;;20.85;19.45;;;;;;;;;;5093312;28;20207;-81
2021/10/22 08:24:59;;;;;;;22.15;20.17;;;;;;;;;;5093778;28;20234;-83
2021/10/22 08:27:27;;;;;;;21.98;20.48;;;;;;;;;;5093837;28;20223;-81
2021/10/22 08:29:55;;;;;;;21.45;20.15;;;;;;;;;;5093778;28;20289;-82
2021/10/22 08:32:22;;;;;;;22.20;20.50;;;;;;;;;;5093627;28;20554;-82
2021/10/22 08:34:50;;;;;;;20.38;19.05;;;;;;;;;;5093405;28;20186;-82
2021/10/22 08:37:17;;;;;;;20.95;19.40;;;;;;;;;;5093380;28;20189;-81
2021/10/22 08:39:47;;;;;;;22.10;20.43;;;;;;;;;;5093276;28;20202;-83
2021/10/22 08:42:20;;;;;;;21.93;20.53;;;;;;;;;;5093316;28;20889;-82
2021/10/22 08:44:48;;;;;;;21.00;19.65;;;;;;;;;;5093321;28;20949;-82
2021/10/22 08:47:15;;;;;;;21.85;20.42;;;;;;;;;;5093441;28;20187;-82
2021/10/22 08:49:43;;;;;;;20.20;18.98;;;;;;;;;;5093328;28;20220;-82
2021/10/22 08:52:10;;;;;;;21.60;19.80;;;;;;;;;;5092900;28;20217;-82
2021/10/22 08:54:39;;;;;;;20.13;18.80;;;;;;;;;;5093313;28;20195;-82
2021/10/22 08:57:08;;;;;;;22.33;20.63;;;;;;;;;;5092690;28;20571;-82
2021/10/22 08:59:37;;;;;;;22.48;20.35;;;;;;;;;;5093218;28;20490;-81
2021/10/22 09:02:12;;;;;;;20.20;19.00;;;;;;;;;;5092835;28;20273;-82
2021/10/22 09:04:40;;;;;;;20.83;18.97;;;;;;;;;;5092818;28;20411;-82
2021/10/22 09:07:08;;;;;;;19.47;18.37;;;;;;;;;;5092854;28;20421;-82
2021/10/22 09:09:36;;;;;;;20.67;19.13;;;;;;;;;;5092784;28;20438;-82
2021/10/22 09:12:04;;;;;;;21.80;20.33;;;;;;;;;;5092985;28;20218;-82
2021/10/22 09:14:32;;;;;;;21.05;19.55;;;;;;;;;;5092975;28;20205;-81
2021/10/22 09:17:00;;;;;;;22.95;20.85;;;;;;;;;;5093072;28;20189;-82
2021/10/22 09:19:29;;;;;;;22.33;20.13;;;;;;;;;;5092553;28;20210;-82
2021/10/22 09:22:00;;;;;;;22.30;20.33;;;;;;;;;;5091672;28;20210;-84
2021/10/22 09:24:34;;;;;;;21.53;20.33;;;;;;;;;;5093075;28;20957;-83
2021/10/22 09:27:02;;;;;;;22.95;21.15;;;;;;;;;;5092654;28;20453;-82
2021/10/22 09:29:30;;;;;;;23.67;21.58;;;;;;;;;;5092870;28;20196;-83
2021/10/22 09:31:58;;;;;;;19.80;18.57;;;;;;;;;;5092821;28;20214;-82
2021/10/22 09:34:31;;;;;;;21.23;19.83;;;;;;;;;;5095835;28;20449;-81
2021/10/22 09:36:58;;;;;;;20.25;19.02;;;;;;;;;;5096968;28;20204;-83
2021/10/22 09:39:28;;;;;;;21.75;20.15;;;;;;;;;;5096806;28;20192;-82
2021/10/22 09:41:56;;;;;;;20.00;18.83;;;;;;;;;;5097126;28;20194;-83
2021/10/22 09:44:24;;;;;;;20.83;19.63;;;;;;;;;;5096780;28;20201;-83
2021/10/22 09:46:52;;;;;;;21.73;20.17;;;;;;;;;;5096640;28;20455;-82
2021/10/22 09:49:26;;;;;;;21.23;19.10;;;;;;;;;;5095369;28;20944;-83
2021/10/22 09:51:56;;;;;;;20.57;19.23;;;;;;;;;;5096599;28;20905;-83
2021/10/22 09:54:29;;;;;;;21.70;19.80;;;;;;;;;;5095696;28;20443;-83
2021/10/22 09:56:57;;;;;;;21.63;19.70;;;;;;;;;;5096619;28;20418;-82
2021/10/22 09:59:26;;;;;;;21.43;19.80;;;;;;;;;;5096946;28;20457;-83
2021/10/22 10:01:55;;;;;;;23.17;21.40;;;;;;;;;;5096720;28;20496;-84
2021/10/22 10:04:23;;;;;;;21.60;19.37;;;;;;;;;;5096582;28;20485;-84
2021/10/22 10:06:50;;;;;;;21.77;19.80;;;;;;;;;;5095741;28;20437;-84
2021/10/22 10:09:21;;;;;;;22.17;20.40;;;;;;;;;;5096840;28;20443;-83
2021/10/22 10:11:50;;;;;;;21.80;20.40;;;;;;;;;;5096719;28;20410;-83
2021/10/22 10:14:21;;;;;;;22.90;21.40;;;;;;;;;;5096796;28;20489;-83
2021/10/22 10:16:48;;;;;;;21.83;20.03;;;;;;;;;;5096751;28;20832;-84
2021/10/22 10:19:20;;;;;;;20.97;19.60;;;;;;;;;;5096621;28;20441;-83
2021/10/22 10:21:50;;;;;;;20.33;19.13;;;;;;;;;;5097056;28;20959;-84
2021/10/22 10:24:21;;;;;;;20.47;19.17;;;;;;;;;;5096377;28;20447;-83
2021/10/22 10:27:02;;;;;;;21.50;20.03;;;;;;;;;;5096071;28;20912;-84
2021/10/22 10:29:30;;;;;;;19.90;18.80;;;;;;;;;;5096508;28;20431;-83
2021/10/22 10:32:00;;;;;;;21.03;19.50;;;;;;;;;;5096227;28;20411;-83
2021/10/22 10:34:39;;;;;;;21.30;19.90;;;;;;;;;;5096391;28;20415;-83
2021/10/22 10:37:07;;;;;;;21.17;19.70;;;;;;;;;;5096004;28;20784;-84
2021/10/22 10:39:53;;;;;;;19.70;18.40;;;;;;;;;;5094754;28;20442;-84
2021/10/22 10:42:22;;;;;;;20.80;19.63;;;;;;;;;;5096085;28;20455;-84
2021/10/22 10:44:51;;;;;;;21.43;19.90;;;;;;;;;;5095101;28;20430;-82
2021/10/22 10:47:36;;;;;;;21.93;20.20;;;;;;;;;;5095985;28;20440;-83
2021/10/22 10:50:06;;;;;;;20.13;18.83;;;;;;;;;;5095566;28;20456;-83
2021/10/22 10:52:54;;;;;;;20.53;19.17;;;;;;;;;;5095222;28;20451;-83
2021/10/22 10:55:27;;;;;;;19.70;18.60;;;;;;;;;;5095632;28;20529;-83
2021/10/22 10:57:55;;;;;;;21.10;19.60;;;;;;;;;;5094967;28;20459;-82
2021/10/22 11:00:23;;;;;;;19.83;18.53;;;;;;;;;;5095626;28;20427;-82
2021/10/22 11:03:12;;;;;;;21.30;20.00;;;;;;;;;;5095548;28;20428;-83
2021/10/22 11:05:58;;;;;;;20.20;19.10;;;;;;;;;;5095422;28;20442;-83
2021/10/22 11:08:27;;;;;;;26.47;20.23;;;;;;;;;;5095290;28;20447;-81
2021/10/22 11:11:00;;;;;;;19.37;18.23;;;;;;;;;;5095335;28;20433;-83
2021/10/22 11:13:44;;;;;;;20.63;19.27;;;;;;;;;;5095204;28;20933;-83
2021/10/22 11:16:26;;;;;;;20.20;19.00;;;;;;;;;;5095222;28;20453;-83
2021/10/22 11:18:54;;;;;;;22.13;20.63;;;;;;;;;;5094972;28;20533;-83
2021/10/22 11:21:22;;;;;;;22.53;21.03;;;;;;;;;;5095300;28;20859;-83
2021/10/22 11:23:50;;;;;;;21.70;20.10;;;;;;;;;;5095033;28;20447;-83
2021/10/22 11:26:19;;;;;;;21.07;19.57;;;;;;;;;;5094970;28;20817;-84
2021/10/22 11:28:47;;;;;;;20.17;18.97;;;;;;;;;;5095018;28;20406;-84
2021/10/22 11:31:14;;;;;;;20.87;19.27;;;;;;;;;;5094862;28;20419;-84
2021/10/22 11:33:44;;;;;;;21.23;19.17;;;;;;;;;;5094681;28;20498;-89
2021/10/22 11:36:12;;;;;;;20.03;18.83;;;;;;;;;;5095381;28;20479;-81
2021/10/22 11:38:42;;;;;;;20.93;19.50;;;;;;;;;;5094740;28;20830;-81
2021/10/22 11:41:13;;;;;;;21.60;19.93;;;;;;;;;;5094332;28;20479;-81
2021/10/22 11:43:57;;;;;;;21.40;19.97;;;;;;;;;;5094131;28;20452;-81
2021/10/22 11:46:25;;;;;;;23.97;22.43;;;;;;;;;;5094198;28;20434;-80
2021/10/22 11:48:52;;;;;;;21.10;19.60;;;;;;;;;;5093311;28;20423;-81
2021/10/22 11:51:19;;;;;;;20.70;19.40;;;;;;;;;;5094130;28;20418;-81
2021/10/22 11:53:47;;;;;;;22.77;20.87;;;;;;;;;;5094346;28;20488;-81
2021/10/22 11:56:14;;;;;;;21.80;20.17;;;;;;;;;;5093772;28;20911;-81
2021/10/22 11:58:44;;;;;;;23.17;21.43;;;;;;;;;;5093758;28;20484;-81
2021/10/22 12:01:12;;;;;;;20.60;19.60;;;;;;;;;;5093874;28;20446;-80
2021/10/22 12:03:40;;;;;;;22.13;20.67;;;;;;;;;;5094033;28;20465;-80
2021/10/22 12:06:15;;;;;;;21.20;19.90;;;;;;;;;;5094119;28;20416;-81
2021/10/22 12:08:43;;;;;;;21.00;19.77;;;;;;;;;;5093977;28;20415;-82
2021/10/22 12:11:10;;;;;;;19.53;18.50;;;;;;;;;;5093834;28;20514;-81
2021/10/22 12:13:41;;;;;;;20.70;19.20;;;;;;;;;;5093705;28;20436;-79
2021/10/22 12:16:13;;;;;;;21.00;19.90;;;;;;;;;;5093500;28;20982;-79
2021/10/22 12:18:41;;;;;;;22.70;21.00;;;;;;;;;;5093962;28;20454;-79
2021/10/22 12:21:09;;;;;;;21.00;19.70;;;;;;;;;;5093944;28;20416;-80
2021/10/22 12:23:38;;;;;;;21.13;19.73;;;;;;;;;;5093935;28;20475;-80
2021/10/22 12:26:05;;;;;;;20.70;19.53;;;;;;;;;;5093896;28;20407;-80
2021/10/22 12:28:32;;;;;;;20.53;19.33;;;;;;;;;;5093541;28;20418;-77
2021/10/22 12:31:10;;;;;;;20.40;19.07;;;;;;;;;;5093293;28;20451;-80
2021/10/22 12:33:39;;;;;;;21.37;20.03;;;;;;;;;;5093203;28;20545;-80
2021/10/22 12:36:16;;;;;;;21.70;19.77;;;;;;;;;;5093477;28;20448;-80
2021/10/22 12:38:43;;;;;;;21.53;20.00;;;;;;;;;;5093158;28;20410;-79
2021/10/22 12:41:12;;;;;;;20.43;19.40;;;;;;;;;;5093225;28;20921;-80
2021/10/22 12:43:39;;;;;;;23.23;21.63;;;;;;;;;;5093599;28;20415;-82
2021/10/22 12:46:09;;;;;;;21.90;20.30;;;;;;;;;;5093849;28;20411;-83
2021/10/22 12:48:39;;;;;;;22.23;20.60;;;;;;;;;;5093118;28;20510;-79
2021/10/22 12:51:09;;;;;;;22.43;20.70;;;;;;;;;;5093331;28;20444;-79
2021/10/22 12:53:38;;;;;;;21.17;19.77;;;;;;;;;;5092841;28;20482;-79
2021/10/22 12:56:07;;;;;;;21.10;19.80;;;;;;;;;;5092829;28;20501;-80
2021/10/22 12:58:37;;;;;;;20.50;19.40;;;;;;;;;;5092177;28;20456;-79
2021/10/22 13:01:06;;;;;;;21.60;20.27;;;;;;;;;;5092919;28;20439;-79
2021/10/22 13:03:34;;;;;;;21.97;20.77;;;;;;;;;;5093666;28;20440;-79
2021/10/22 13:06:11;;;;;;;22.23;21.00;;;;;;;;;;5092866;28;20455;-79
2021/10/22 13:08:44;;;;;;;21.87;20.37;;;;;;;;;;5092276;28;20424;-80
2021/10/22 13:11:25;;;;;;;35.33;33.00;;;;;;;;;;5091348;28;20472;-80
2021/10/22 13:22:17;;;;;;;29.17;27.37;;;;;;;;;;5030715;28;20716;-81
2021/10/22 13:24:44;;;;;;;40.87;37.93;;;;;;;;;;5030311;28;20565;-80
2021/10/22 13:27:12;;;;;;;52.33;41.30;;;;;;;;;;5030138;28;20489;-81
2021/10/22 13:29:40;;;;;;;58.67;53.03;;;;;;;;;;5030499;28;20495;-82
2021/10/22 13:32:07;;;;;;;54.37;50.20;;;;;;;;;;5030648;28;20760;-83
2021/10/22 13:34:34;;;;;;;51.83;48.40;;;;;;;;;;5030770;28;20482;-82
2021/10/22 13:37:02;;;;;;;59.60;54.63;;;;;;;;;;5031888;28;20454;-89
2021/10/22 13:39:31;;;;;;;59.22;55.58;;;;;;;;;;5015364;28;20247;-93
2021/10/22 13:41:58;;;;;;;62.83;57.17;;;;;;;;;;5032250;28;20196;-89
2021/10/22 13:44:26;;;;;;;57.50;53.00;;;;;;;;;;5032265;28;20438;-93
2021/10/22 13:46:53;;;;;;;52.20;48.20;;;;;;;;;;5032015;28;20915;-91
2021/10/22 13:49:21;;;;;;;45.30;42.47;;;;;;;;;;5033194;28;20235;-91
2021/10/22 13:51:48;;;;;;;42.77;39.80;;;;;;;;;;5044191;28;20427;-88
2021/10/22 13:54:15;;;;;;;38.75;36.15;;;;;;;;;;5093620;28;20470;-88
2021/10/22 13:56:44;;;;;;;36.33;33.80;;;;;;;;;;5093700;28;20194;-87
2021/10/22 13:59:11;;;;;;;33.22;30.85;;;;;;;;;;5094258;28;20447;-88
2021/10/22 14:01:39;;;;;;;32.37;29.87;;;;;;;;;;5094005;28;20186;-88
2021/10/22 14:04:06;;;;;;;31.33;29.00;;;;;;;;;;5094152;28;20419;-89
2021/10/22 14:06:36;;;;;;;31.00;28.80;;;;;;;;;;5094132;28;20410;-88
2021/10/22 14:09:04;;;;;;;30.05;28.05;;;;;;;;;;5094111;28;20273;-88
2021/10/22 14:11:35;;;;;;;29.05;27.27;;;;;;;;;;5093796;28;20701;-86
2021/10/22 14:14:13;;;;;;;30.13;27.65;;;;;;;;;;5093293;28;20217;-88
2021/10/22 14:16:56;;;;;;;30.73;28.55;;;;;;;;;;5092679;28;20190;-88
2021/10/22 14:30:30;;;;;;;28.60;26.95;;;;;;;;;;5025604;28;20561;-88
2021/10/22 14:32:58;;;;;;;31.30;29.40;;;;;;;;;;5032466;28;20208;-87
2021/10/22 14:35:25;;;;;;;31.55;29.63;;;;;;;;;;5015728;28;20217;-87
2021/10/22 14:37:53;;;;;;;32.80;30.80;;;;;;;;;;5027391;28;20196;-87
2021/10/22 14:40:21;;;;;;;30.05;28.15;;;;;;;;;;5019773;28;21047;-87
2021/10/22 14:42:49;;;;;;;28.70;26.88;;;;;;;;;;5022688;28;20301;-86
2021/10/22 14:45:22;;;;;;;28.60;26.90;;;;;;;;;;5026604;28;20259;-85
2021/10/22 14:47:55;;;;;;;29.17;27.40;;;;;;;;;;5020468;28;20202;-85
2021/10/22 14:50:24;;;;;;;30.08;27.75;;;;;;;;;;5020820;28;20202;-86